Last 48 Hours

Smith Lane (Kelseyville-South)

Hourly Data | America/Los_Angeles
as of 5/19/24 6:32 AM PDT
Date & Time Temp (°F) WindChill (°F) RH (%) Dew Pt (°F) Wet Bulb (°F) Wind Dir (°) Wind Spd (mph) Wind Gust (mph) Wind Gst Dir (°) Leaf Wet (mins) Latest Rain (In) Daily Rain (In) Daily Min Temp (°F) Daily Max Temp (°F) Daily Leaf Wet (Hrs)
5/19/24 - 0600 42.7 - 89 39.5 41.3 ESE | 109 0.5 3.2 ESE | 122 0.0 0.00 0.00 42.4 52.9 0.0
5/19/24 - 0500 44.6 - 89 40.4 42.3 SE | 137 0.5 2.6 SE | 135 0.0 0.00 0.00 43.5 52.9 0.0
5/19/24 - 0400 45.9 44.7 85 41.1 43.6 SE | 134 2.3 4.3 SE | 129 0.0 0.00 0.00 45.3 52.9 0.0
5/19/24 - 0300 47.5 46.3 82 41.6 44.7 SSE | 147 2.8 4.3 SSE | 161 0.0 0.00 0.00 47.0 52.9 0.0
5/19/24 - 0200 50.0 - 79 42.4 45.9 ESE | 116 2.5 4.9 ESE | 105 0.0 0.00 0.00 48.5 52.9 0.0
5/19/24 - 0100 55.4 - 70 43.3 48.4 S | 171 3.4 7.1 SSW | 210 0.0 0.00 0.00 50.1 82.7 4.3
5/19/24 - 0000 57.2 - 63 43.9 50.1 S | 183 3.5 7.1 SSE | 167 0.0 0.00 0.00 50.1 82.7 4.3
5/18/24 - 2300 58.5 - 61 44.0 50.6 S | 179 3.3 6.5 SSW | 200 0.0 0.00 0.00 50.1 82.7 4.3
5/18/24 - 2200 60.8 - 55 43.4 51.2 SSE | 167 3.7 6.0 SE | 140 0.0 0.00 0.00 50.1 82.7 4.3
5/18/24 - 2100 65.5 - 52 44.2 52.6 S | 185 3.4 7.1 SSW | 200 0.0 0.00 0.00 50.1 82.7 4.3
5/18/24 - 2000 71.6 - 41 44.6 55.1 SSW | 211 5.6 12.1 SSW | 207 0.0 0.00 0.00 50.1 82.7 4.3
5/18/24 - 1900 75.0 - 38 46.6 57.4 SW | 227 8.4 15.5 SW | 231 0.0 0.00 0.00 50.1 82.7 4.3
5/18/24 - 1800 77.6 - 36 47.7 58.7 SW | 229 8.3 16.0 SSW | 204 0.0 0.00 0.00 50.1 82.7 4.3
5/18/24 - 1700 79.6 - 39 51.6 61.3 SW | 236 8.3 14.4 SW | 222 0.0 0.00 0.00 50.1 82.7 4.3
5/18/24 - 1600 80.6 - 45 56.0 63.9 SW | 235 8.8 17.7 SW | 215 0.0 0.00 0.00 50.1 82.7 4.3
5/18/24 - 1500 80.6 - 40 54.4 63.2 SW | 234 8.9 16.0 WSW | 241 0.0 0.00 0.00 50.1 82.7 4.3
5/18/24 - 1400 80.2 - 45 56.8 64.5 SW | 227 9.1 16.0 WSW | 242 0.0 0.00 0.00 50.1 82.7 4.3
5/18/24 - 1300 81.5 - 44 57.0 64.8 NNW | 336 4.3 12.7 WSW | 249 0.0 0.00 0.00 50.1 82.7 4.3
5/18/24 - 1200 78.6 - 44 56.3 64.3 NNE | 15 3.5 7.1 N | 6 0.0 0.00 0.00 50.1 80.4 4.3
5/18/24 - 1100 75.8 - 54 59.3 65.7 N | 5 3.0 9.9 NNW | 334 0.0 0.00 0.00 50.1 77.4 4.3
5/18/24 - 1000 72.4 - 56 57.9 64.3 N | 11 1.5 6.0 NNE | 22 0.0 0.00 0.00 50.1 74.8 4.3
5/18/24 - 0900 69.2 - 62 57.2 62.9 NNE | 30 0.3 4.3 NE | 40 0.0 0.00 0.00 50.1 71.1 4.3
5/18/24 - 0800 62.6 - 68 55.1 60.2 W | 278 0.0 1.5 NW | 309 28.4 0.00 0.00 50.1 66.1 4.3
5/18/24 - 0700 52.3 - 90 53.8 56.0 SE | 143 0.7 2.6 SE | 124 60.0 0.00 0.00 50.1 56.9 3.8
5/18/24 - 0600 51.0 - 96 49.2 50.6 N | 0 0.0 0.0 S | 171 60.0 0.00 0.00 50.4 56.9 2.8
5/18/24 - 0500 52.0 - 95 50.4 51.9 SE | 139 0.7 2.6 SE | 131 60.0 0.00 0.00 51.8 56.9 1.8
5/18/24 - 0400 53.2 - 96 51.0 52.5 S | 170 0.3 2.6 SSE | 166 49.4 0.00 0.00 52.2 56.9 0.8
5/18/24 - 0300 55.0 - 94 52.3 54.1 N | 0 0.0 0.0 SE | 138 0.0 0.00 0.00 54.0 56.9 0.0
5/18/24 - 0200 56.4 - 93 53.6 55.6 N | 0 0.0 0.0 SSE | 147 0.0 0.00 0.00 55.6 56.9 0.0
5/18/24 - 0100 58.0 - 91 54.4 56.6 SE | 134 0.1 2.1 SE | 125 0.0 0.00 0.00 48.6 86.4 5.7
5/18/24 - 0000 60.2 - 87 55.4 58.1 SE | 142 0.4 2.6 SSE | 160 0.0 0.00 0.00 48.6 86.4 5.7
5/17/24 - 2300 63.5 - 82 56.3 59.6 SE | 140 1.9 4.3 SE | 137 0.0 0.00 0.00 48.6 86.4 5.7
5/17/24 - 2200 66.9 - 69 55.0 59.9 S | 173 2.5 4.3 S | 178 0.0 0.00 0.00 48.6 86.4 5.7
5/17/24 - 2100 71.4 - 67 57.4 62.6 SSW | 200 3.8 8.2 SSW | 207 0.0 0.00 0.00 48.6 86.4 5.7
5/17/24 - 2000 77.1 - 59 58.4 64.4 SSW | 209 4.0 8.2 SSW | 193 0.0 0.00 0.00 48.6 86.4 5.7
5/17/24 - 1900 80.7 - 50 58.7 65.7 SW | 224 5.7 11.0 W | 273 0.0 0.00 0.00 48.6 86.4 5.7
5/17/24 - 1800 83.2 - 44 58.4 65.9 SW | 217 7.2 12.7 SW | 219 0.0 0.00 0.00 48.6 86.4 5.7
5/17/24 - 1700 84.3 - 41 58.0 65.9 SW | 224 7.4 13.8 WSW | 245 0.0 0.00 0.00 48.6 86.4 5.7
5/17/24 - 1600 85.2 - 38 55.7 64.6 WSW | 240 7.0 14.4 SW | 217 0.0 0.00 0.00 48.6 86.4 5.7
5/17/24 - 1500 85.7 - 33 54.2 64.0 NNE | 18 3.7 9.3 NNE | 21 0.0 0.00 0.00 48.6 86.3 5.7
5/17/24 - 1400 83.8 - 31 51.5 62.5 N | 3 3.1 8.8 NNE | 15 0.0 0.00 0.00 48.6 85.8 5.7
5/17/24 - 1300 81.1 - 40 55.2 63.9 NNE | 19 3.3 8.2 NNE | 19 0.0 0.00 0.00 48.6 82.3 5.7
5/17/24 - 1200 77.4 - 49 58.6 65.6 NNE | 13 2.9 7.1 NNE | 20 0.0 0.00 0.00 48.6 79.8 5.7
5/17/24 - 1100 73.9 - 53 57.4 64.1 N | 7 3.1 7.1 NNE | 32 0.0 0.00 0.00 48.6 75.7 5.7
5/17/24 - 1000 70.4 - 62 58.6 64.2 NNE | 13 1.6 5.4 ENE | 58 0.0 0.00 0.00 48.6 72.4 5.7
5/17/24 - 0900 66.5 - 67 57.0 62.1 NNE | 26 0.5 4.3 N | 9 0.0 0.00 0.00 48.6 68.4 5.7
5/17/24 - 0800 59.4 - 72 54.6 59.1 N | 0 0.0 0.0 SE | 127 40.8 0.00 0.00 48.6 63.6 5.7
5/17/24 - 0700 50.9 - 88 51.9 54.3 N | 0 0.0 0.0 S | 169 60.0 0.00 0.00 48.6 55.2 5.0
5/17/24 - 0600 49.3 - 96 47.7 48.9 N | 0 0.0 0.0 SSE | 149 60.0 0.00 0.00 48.8 54.3 4.0
Max 85.7 46.3 96 59.3 65.9 - 9.1 17.7 - 60.0 0.00 0.00 55.6 86.4 5.7
Avg 66.6 45.5 64 52.0 57.8 - 3.2 7.0 - 8.5 0.00 - - - -
Min 42.7 44.7 31 39.5 41.3 - 0.0 0.0 - 0.0 0.00 0.00 42.4 52.9 0.0
Total - - - - - - - - - - 0.00 - - - -